Nyala, Nevada Weather observations

Data are for observation ending at time listed.
 Day   Time    Ave.   Ave.  Ave.  Vector   Max.   Stn.    Total    Solar   Ave.  
  of    of     Air    Rel.  Wind   Wind    Wind   Baro.  Precip.   Rad.    Soil  
Year   Day     Temp.  Hum.  Speed  Dir.    Gust   Pres.                    Temp. 
2016   (PST)    F      %     mph   deg.    mph     mb.     in.     W/m2     F   
------------------------------------------------------------------------------
 205   22:00   80.8     8    4.2    27     10.4    851     0.00       0    93.4
 205   23:00   79.5     8    3.7    57      7.2    851     0.00       0    91.6
 206    0:00   75.4    10    2.0    94      5.6    851     0.00       0    90.1
 206    1:00   68.7    12    1.6    36      4.2    852     0.00       0    88.6
 206    2:00   69.1    12    1.4    89      7.8    852     0.00       0    87.1
 206    3:00   58.6    23    4.8   200      7.5    852     0.00       0    85.7
 206    4:00   58.2    20    2.8   172      5.6    852     0.00       0    84.3
 206    5:00   56.5    22    2.1   168      5.3    852     0.00       1    83.0
 206    6:00   59.7    20    2.4   178      4.8    853     0.00      31    81.7
 206    7:00   70.5    15    2.7   237      6.2    854     0.00     116    80.7
 206    8:00   78.0    13    2.4   350      8.9    854     0.00     212    80.6
 206    9:00   82.5    12    2.6     3      8.8    854     0.00     293    81.3
 206   10:00   86.6    10    2.9   358      9.6    853     0.00     363    82.5
 206   11:00   90.5     8    2.2   299      8.2    853     0.00     407    84.1
 206   12:00   94.7     8    1.6   327      7.2    853     0.00     425    86.1
 206   13:00   97.7     8    1.7     0      9.4    852     0.00     423    88.9
 206   14:00  100.7     8    5.3   188     18.6    850     0.00     385    92.9
 206   15:00  101.9     7   11.1   180     24.6    849     0.00     341    96.6
 206   16:00  101.6     7   10.1   184     25.8    849     0.00     266    99.2
 206   17:00   99.8     7   12.6   205     22.7    849     0.00     188    100.7
 206   18:00   97.9     7   10.8   197     21.4    849     0.00     104    100.9
 206   19:00   93.1     8    9.3   192     17.3    849     0.00      26    100.1
 206   20:00   87.7     9    6.4   164     12.1    850     0.00       0    98.1
 206   21:00   87.5     8    7.4   160     15.4    850     0.00       0    96.0

Return to Nyala, Nevada graphs page.


Western Regional Climate Center,wrcc@dri.edu